Time;durP1;ratioP1;P1;durP2;ratioP2;P2;SDS_P1;SDS_P2;PMS_P1;PMS_P2;Temp;Humidity;BMP_temperature;BMP_pressure;BME280_temperature;BME280_humidity;BME280_pressure;Samples;Min_cycle;Max_cycle;Signal;HPM_P1;HPM_P2
2022/03/04 00:00:18;;;;;;;28.08;17.67;;;;;;;6.35;100.00;100913.19;5095728;28;20481;-74
2022/03/04 00:03:04;;;;;;;27.00;17.55;;;;;;;6.69;100.00;100905.44;5094381;28;20102;-74
2022/03/04 00:05:50;;;;;;;26.55;16.98;;;;;;;6.40;100.00;100911.47;5096151;28;20024;-73
2022/03/04 00:08:36;;;;;;;28.00;17.33;;;;;;;6.10;100.00;100914.84;5081177;28;20042;-73
2022/03/04 00:11:21;;;;;;;27.55;17.08;;;;;;;6.39;100.00;100914.94;5095313;28;20076;-74
2022/03/04 00:14:08;;;;;;;29.95;17.40;;;;;;;6.65;100.00;100905.44;5079249;28;20085;-73
2022/03/04 00:16:54;;;;;;;25.42;16.60;;;;;;;6.56;100.00;100905.44;5079174;28;20046;-74
2022/03/04 00:19:39;;;;;;;25.02;16.27;;;;;;;6.69;99.91;100909.78;5095858;28;20043;-75
2022/03/04 00:22:25;;;;;;;25.13;16.20;;;;;;;6.71;99.82;100905.47;5095096;28;20032;-74
2022/03/04 00:25:11;;;;;;;27.75;17.08;;;;;;;6.51;100.00;100905.41;5095523;28;20031;-73
2022/03/04 00:27:57;;;;;;;24.63;16.23;;;;;;;6.11;100.00;100906.16;5095970;28;20027;-73
2022/03/04 00:30:43;;;;;;;26.95;17.58;;;;;;;5.86;100.00;100901.75;5095346;28;20024;-72
2022/03/04 00:33:29;;;;;;;26.98;17.48;;;;;;;6.16;100.00;100899.28;5094935;28;20024;-74
2022/03/04 00:36:14;;;;;;;28.52;17.35;;;;;;;6.38;100.00;100897.59;5096120;28;20016;-74
2022/03/04 00:39:00;;;;;;;26.50;17.25;;;;;;;6.44;100.00;100893.28;5094945;28;20476;-74
2022/03/04 00:41:46;;;;;;;26.17;17.00;;;;;;;6.60;100.00;100888.94;5079144;28;20040;-74
2022/03/04 00:44:32;;;;;;;27.92;17.05;;;;;;;6.45;100.00;100884.59;5081082;28;20356;-75
2022/03/04 00:47:17;;;;;;;30.33;18.45;;;;;;;6.16;100.00;100893.19;5094844;28;20107;-75
2022/03/04 00:50:05;;;;;;;27.67;17.98;;;;;;;6.09;100.00;100894.03;5080489;28;20400;-73
2022/03/04 00:52:50;;;;;;;28.05;18.30;;;;;;;6.21;100.00;100891.47;5094208;28;20056;-73
2022/03/04 00:55:38;;;;;;;27.92;18.25;;;;;;;6.01;100.00;100894.00;5094970;28;20028;-73
2022/03/04 00:58:24;;;;;;;29.88;17.75;;;;;;;5.98;100.00;100888.78;5080807;28;20032;-73
2022/03/04 01:01:10;;;;;;;29.98;18.40;;;;;;;6.02;100.00;100887.09;5081634;28;20039;-73
2022/03/04 01:03:56;;;;;;;28.83;17.70;;;;;;;5.78;100.00;100879.16;5094492;28;20044;-74
2022/03/04 01:06:42;;;;;;;31.77;17.73;;;;;;;5.86;100.00;100880.09;5095409;28;20089;-74
2022/03/04 01:09:28;;;;;;;28.77;18.23;;;;;;;6.03;100.00;100881.00;5094610;28;20116;-73
2022/03/04 01:12:13;;;;;;;31.95;19.20;;;;;;;5.78;100.00;100880.00;5094340;28;20047;-74
2022/03/04 01:14:59;;;;;;;31.85;19.40;;;;;;;5.74;100.00;100880.00;5094716;28;19912;-74
2022/03/04 01:17:45;;;;;;;31.52;19.13;;;;;;;5.70;100.00;100875.66;5094957;28;20030;-73
2022/03/04 01:20:31;;;;;;;31.33;18.65;;;;;;;5.80;100.00;100880.00;5094038;28;20106;-74
2022/03/04 01:23:17;;;;;;;29.88;19.50;;;;;;;5.74;100.00;100874.81;5094147;28;20337;-74
2022/03/04 01:26:03;;;;;;;32.22;19.38;;;;;;;5.74;100.00;100878.25;5094561;28;20055;-74
2022/03/04 01:28:49;;;;;;;30.67;18.85;;;;;;;5.96;100.00;100874.06;5093949;28;20038;-74
2022/03/04 01:31:35;;;;;;;29.15;19.25;;;;;;;5.90;100.00;100879.25;5094775;28;20081;-73
2022/03/04 01:34:21;;;;;;;30.45;19.05;;;;;;;5.97;100.00;100878.38;5093688;28;20046;-73
2022/03/04 01:37:08;;;;;;;30.75;19.52;;;;;;;5.68;100.00;100874.75;5094306;28;20074;-72
2022/03/04 01:39:54;;;;;;;29.85;17.85;;;;;;;6.16;100.00;100882.78;5093846;28;20469;-73
2022/03/04 01:42:41;;;;;;;31.38;18.88;;;;;;;5.78;100.00;100876.56;5094088;28;20046;-73
2022/03/04 01:45:27;;;;;;;30.48;20.48;;;;;;;5.83;100.00;100885.28;5094277;28;20448;-73
2022/03/04 01:48:13;;;;;;;33.80;20.67;;;;;;;5.76;100.00;100881.75;5079570;28;20032;-74
2022/03/04 01:50:59;;;;;;;32.45;19.75;;;;;;;5.20;100.00;100886.59;5094308;28;20091;-73
2022/03/04 01:53:45;;;;;;;31.02;19.08;;;;;;;5.56;100.00;100888.56;5093256;28;20028;-73
2022/03/04 01:56:31;;;;;;;30.58;18.83;;;;;;;5.51;100.00;100890.28;5094551;28;20059;-73
2022/03/04 01:59:17;;;;;;;29.65;18.45;;;;;;;5.43;100.00;100884.19;5093747;28;20452;-73
2022/03/04 02:02:03;;;;;;;27.75;18.45;;;;;;;5.29;100.00;100883.22;5093324;28;20028;-73
2022/03/04 02:04:50;;;;;;;31.23;19.27;;;;;;;5.42;100.00;100887.59;5094398;28;20107;-72
2022/03/04 02:07:35;;;;;;;30.52;18.75;;;;;;;5.28;100.00;100882.31;5094227;28;20337;-73
2022/03/04 02:10:21;;;;;;;31.42;19.27;;;;;;;5.34;100.00;100882.38;5093846;28;20470;-72
2022/03/04 02:13:07;;;;;;;30.25;19.40;;;;;;;4.92;100.00;100891.59;5079753;28;20146;-73
2022/03/04 02:15:53;;;;;;;33.47;19.48;;;;;;;5.07;100.00;100892.56;5094358;28;20051;-73
2022/03/04 02:18:38;;;;;;;32.67;19.92;;;;;;;5.36;100.00;100891.03;5093604;28;20028;-75
2022/03/04 02:21:26;;;;;;;34.25;21.05;;;;;;;5.33;100.00;100893.63;5094093;28;20348;-73
2022/03/04 02:24:12;;;;;;;32.40;20.33;;;;;;;5.25;100.00;100895.31;5094793;28;20016;-73
2022/03/04 02:27:00;;;;;;;37.20;21.88;;;;;;;5.27;100.00;100884.94;5093958;28;20032;-73
2022/03/04 02:29:46;;;;;;;34.28;20.55;;;;;;;5.31;100.00;100895.34;5093548;28;20024;-73
2022/03/04 02:32:32;;;;;;;33.80;21.08;;;;;;;5.05;100.00;100883.03;5095690;28;20526;-74
2022/03/04 02:35:18;;;;;;;36.03;20.38;;;;;;;5.55;100.00;100891.16;5096190;28;20042;-73
2022/03/04 02:38:04;;;;;;;35.92;21.98;;;;;;;5.30;100.00;100890.13;5097600;28;20038;-74
2022/03/04 02:40:50;;;;;;;35.72;22.73;;;;;;;5.40;100.00;100887.59;5082046;28;20020;-73
2022/03/04 02:43:36;;;;;;;38.17;21.80;;;;;;;5.13;100.00;100887.44;5081221;28;20070;-74
2022/03/04 02:46:22;;;;;;;35.58;21.67;;;;;;;5.42;100.00;100889.38;5096826;28;20020;-74
2022/03/04 02:49:10;;;;;;;38.38;21.55;;;;;;;5.40;100.00;100886.75;5096216;28;20051;-74
2022/03/04 02:51:56;;;;;;;33.28;21.02;;;;;;;5.42;100.00;100882.41;5096977;28;20418;-74
2022/03/04 02:54:42;;;;;;;33.10;21.25;;;;;;;5.17;100.00;100880.53;5097282;28;20032;-72
2022/03/04 02:57:27;;;;;;;34.50;21.08;;;;;;;5.63;100.00;100881.69;5097077;28;20032;-73
2022/03/04 03:00:16;;;;;;;34.38;21.58;;;;;;;5.69;100.00;100882.56;5097093;28;20108;-74
2022/03/04 03:03:01;;;;;;;33.70;21.00;;;;;;;5.56;100.00;100879.91;5096454;28;20012;-74
2022/03/04 03:05:47;;;;;;;32.83;21.20;;;;;;;5.43;100.00;100878.97;5097478;28;20028;-73
2022/03/04 03:08:33;;;;;;;32.97;20.23;;;;;;;4.90;100.00;100883.81;5100477;28;20032;-74
2022/03/04 03:11:19;;;;;;;36.85;21.65;;;;;;;4.78;100.00;100882.81;5101519;28;20083;-74
2022/03/04 03:14:05;;;;;;;38.17;21.10;;;;;;;5.11;100.00;100886.53;5101626;28;20024;-74
2022/03/04 03:16:50;;;;;;;36.40;21.92;;;;;;;4.85;100.00;100888.09;5098583;28;20028;-74
2022/03/04 03:19:36;;;;;;;32.38;21.65;;;;;;;5.20;100.00;100893.53;5087114;28;20388;-74
2022/03/04 03:22:22;;;;;;;32.65;20.70;;;;;;;5.20;100.00;100888.34;5112597;28;20024;-74
2022/03/04 03:25:08;;;;;;;33.13;20.98;;;;;;;5.23;100.00;100889.22;5092088;28;20062;-74
2022/03/04 03:27:54;;;;;;;37.58;21.63;;;;;;;5.02;100.00;100883.91;5100342;28;20043;-73
2022/03/04 03:30:40;;;;;;;34.38;21.75;;;;;;;5.48;100.00;100885.91;5095619;28;20033;-73
2022/03/04 03:33:26;;;;;;;33.95;21.52;;;;;;;5.34;100.00;100891.88;5112348;28;20091;-73
2022/03/04 03:36:12;;;;;;;35.38;22.13;;;;;;;5.09;100.00;100884.81;5114450;28;20031;-72
2022/03/04 03:38:57;;;;;;;35.05;22.23;;;;;;;5.44;100.00;100881.56;5098347;28;20048;-74
2022/03/04 03:41:43;;;;;;;34.10;22.25;;;;;;;5.20;100.00;100872.78;5100237;28;20043;-73
2022/03/04 03:44:29;;;;;;;35.40;21.80;;;;;;;5.64;100.00;100878.22;5113431;28;20083;-73
2022/03/04 03:47:15;;;;;;;40.53;22.98;;;;;;;4.93;100.00;100870.84;5112604;28;20503;-74
2022/03/04 03:50:01;;;;;;;35.38;22.17;;;;;;;5.00;100.00;100872.66;5108657;28;20020;-74
2022/03/04 03:52:47;;;;;;;38.25;22.52;;;;;;;4.88;100.00;100869.97;5099416;28;20050;-74
2022/03/04 03:55:32;;;;;;;39.47;23.40;;;;;;;4.96;100.00;100865.69;5097864;28;20020;-74
2022/03/04 03:58:18;;;;;;;36.13;22.10;;;;;;;5.02;100.00;100863.13;5082487;28;20356;-74
2022/03/04 04:01:04;;;;;;;35.17;22.00;;;;;;;4.73;100.00;100869.81;5096880;28;20352;-74
2022/03/04 04:03:50;;;;;;;38.65;23.17;;;;;;;4.38;100.00;100875.56;5096476;28;20024;-74
2022/03/04 04:06:38;;;;;;;34.53;22.88;;;;;;;3.81;100.00;100872.31;5085225;28;20023;-73
2022/03/04 04:09:23;;;;;;;40.25;23.77;;;;;;;3.53;100.00;100878.00;5100274;28;20039;-75
2022/03/04 04:12:10;;;;;;;37.70;24.50;;;;;;;3.59;100.00;100884.16;5108659;28;20045;-73
2022/03/04 04:14:55;;;;;;;39.08;23.83;;;;;;;3.46;100.00;100882.22;5110234;28;20042;-73
2022/03/04 04:17:41;;;;;;;40.45;24.42;;;;;;;3.55;100.00;100877.19;5095323;28;20051;-73
2022/03/04 04:20:27;;;;;;;41.63;25.52;;;;;;;3.67;100.00;100887.72;5110886;28;20096;-73
2022/03/04 04:23:13;;;;;;;41.28;24.52;;;;;;;3.54;100.00;100885.78;5112069;28;20023;-74
2022/03/04 04:25:58;;;;;;;42.60;24.23;;;;;;;3.58;100.00;100892.75;5097842;28;20031;-73
2022/03/04 04:28:44;;;;;;;42.85;25.20;;;;;;;3.41;100.00;100888.19;5110745;28;20024;-73
2022/03/04 04:31:32;;;;;;;42.03;26.63;;;;;;;3.64;100.00;100890.25;5109404;28;20032;-72
2022/03/04 04:34:18;;;;;;;45.42;26.77;;;;;;;3.55;100.00;100902.22;5110496;28;20089;-72
2022/03/04 04:37:04;;;;;;;47.33;27.92;;;;;;;3.54;100.00;100903.06;5097837;28;20023;-75
2022/03/04 04:39:49;;;;;;;45.65;27.17;;;;;;;3.63;100.00;100905.78;5095057;28;20024;-74
2022/03/04 04:42:35;;;;;;;46.33;26.98;;;;;;;3.83;100.00;100906.91;5099133;28;20095;-75
2022/03/04 04:45:21;;;;;;;45.75;27.38;;;;;;;3.86;100.00;100906.94;5098011;28;20026;-75
2022/03/04 04:48:07;;;;;;;42.80;27.35;;;;;;;3.82;100.00;100911.19;5097741;28;20032;-74
2022/03/04 04:50:52;;;;;;;47.47;28.02;;;;;;;3.73;100.00;100910.22;5095945;28;20085;-74
2022/03/04 04:53:39;;;;;;;49.15;29.50;;;;;;;3.79;100.00;100918.06;5098402;28;20027;-75
2022/03/04 04:56:25;;;;;;;50.25;30.92;;;;;;;3.73;100.00;100921.44;5080931;28;20039;-74
2022/03/04 04:59:11;;;;;;;73.97;42.38;;;;;;;3.79;100.00;100920.66;5094371;28;20371;-74
2022/03/04 05:01:57;;;;;;;64.28;39.20;;;;;;;3.77;100.00;100917.16;5079149;28;20036;-73
2022/03/04 05:04:43;;;;;;;71.00;40.10;;;;;;;3.74;100.00;100925.78;5093870;28;20024;-74
2022/03/04 05:07:28;;;;;;;68.22;39.78;;;;;;;3.91;100.00;100924.25;5095014;28;20028;-74
2022/03/04 05:10:14;;;;;;;66.07;37.42;;;;;;;3.86;100.00;100938.03;5095003;28;20057;-74
2022/03/04 05:13:00;;;;;;;65.43;39.13;;;;;;;3.91;100.00;100937.22;5095033;28;20455;-74
2022/03/04 05:15:48;;;;;;;68.25;38.53;;;;;;;3.92;100.00;100936.41;5094803;28;20048;-74
2022/03/04 05:18:34;;;;;;;61.30;38.53;;;;;;;3.99;100.00;100933.00;5094078;28;20024;-73
2022/03/04 05:21:19;;;;;;;61.03;37.72;;;;;;;3.98;100.00;100935.59;5094442;28;20031;-75
2022/03/04 05:24:06;;;;;;;60.13;37.15;;;;;;;4.06;100.00;100939.16;5079142;28;20375;-75
2022/03/04 05:26:52;;;;;;;64.80;37.30;;;;;;;4.15;100.00;100940.13;5094262;28;20028;-74
2022/03/04 05:29:38;;;;;;;56.97;36.00;;;;;;;4.11;100.00;100943.53;5094842;28;20032;-74
2022/03/04 05:32:23;;;;;;;64.00;35.95;;;;;;;4.11;100.00;100946.09;5093830;28;20024;-73
2022/03/04 05:35:09;;;;;;;63.65;37.28;;;;;;;4.29;100.00;100943.75;5093282;28;20032;-73
2022/03/04 05:37:55;;;;;;;59.38;33.70;;;;;;;4.21;100.00;100947.09;5094309;28;20329;-73
2022/03/04 05:40:41;;;;;;;55.53;34.55;;;;;;;4.35;100.00;100954.19;5094101;28;20028;-74
2022/03/04 05:43:26;;;;;;;56.25;34.25;;;;;;;4.31;100.00;100954.16;5094383;28;20027;-72
2022/03/04 05:46:13;;;;;;;79.40;45.45;;;;;;;4.45;100.00;100961.22;5094133;28;20031;-73
2022/03/04 05:48:59;;;;;;;77.78;45.95;;;;;;;4.37;100.00;100970.63;5093847;28;20025;-75
2022/03/04 05:51:44;;;;;;;77.20;46.47;;;;;;;4.61;100.00;100965.72;5093081;28;20126;-74
2022/03/04 05:54:31;;;;;;;80.68;47.50;;;;;;;4.54;100.00;100971.69;5095169;28;20332;-74
2022/03/04 05:57:16;;;;;;;76.97;42.63;;;;;;;4.54;100.00;100973.41;5093559;28;20024;-74
2022/03/04 06:00:04;;;;;;;61.92;37.65;;;;;;;4.55;100.00;100973.41;5094231;28;20028;-74
2022/03/04 06:02:49;;;;;;;67.43;38.63;;;;;;;4.57;100.00;100978.63;5094097;28;20504;-73
2022/03/04 06:05:35;;;;;;;62.45;37.28;;;;;;;4.66;100.00;100983.91;5080892;28;20070;-73
2022/03/04 06:08:21;;;;;;;56.97;35.15;;;;;;;4.65;100.00;100983.06;5097712;28;20354;-74
2022/03/04 06:11:08;;;;;;;58.35;35.70;;;;;;;4.65;100.00;100985.66;5084921;28;20190;-73
2022/03/04 06:13:54;;;;;;;55.67;33.67;;;;;;;4.72;100.00;100986.59;5096686;28;20114;-73
2022/03/04 06:16:40;;;;;;;51.45;32.10;;;;;;;4.80;100.00;100991.00;5082726;28;20028;-74
2022/03/04 06:19:25;;;;;;;55.20;32.63;;;;;;;4.80;100.00;100990.13;5083343;28;20059;-73
2022/03/04 06:22:11;;;;;;;62.60;35.33;;;;;;;5.07;100.00;100996.44;5082699;28;20038;-74
2022/03/04 06:24:57;;;;;;;59.05;33.72;;;;;;;5.14;100.00;100985.25;5083653;28;20152;-73
2022/03/04 06:27:58;;;;;;;71.53;43.63;;;;;;;5.38;100.00;100983.72;5097291;28;20024;-73
2022/03/04 06:30:44;;;;;;;64.68;39.47;;;;;;;5.00;100.00;100988.59;5098305;28;20032;-73
2022/03/04 06:33:30;;;;;;;69.07;38.00;;;;;;;5.04;100.00;100980.84;5097565;28;20021;-73
2022/03/04 06:36:16;;;;;;;57.88;35.90;;;;;;;5.11;100.00;100989.56;5097449;28;20028;-73
2022/03/04 06:39:02;;;;;;;65.60;37.58;;;;;;;5.18;100.00;100986.16;5083067;28;20367;-71
2022/03/04 06:41:50;;;;;;;59.83;36.88;;;;;;;5.34;100.00;100986.28;5096497;28;20024;-71
2022/03/04 06:44:36;;;;;;;61.20;37.75;;;;;;;5.56;100.00;100986.44;5096217;28;20459;-72
2022/03/04 06:47:22;;;;;;;78.60;43.70;;;;;;;5.77;100.00;100983.97;5096757;28;20470;-71
2022/03/04 06:50:08;;;;;;;79.55;48.78;;;;;;;5.83;100.00;100984.06;5096840;28;20456;-74
2022/03/04 06:52:54;;;;;;;66.50;39.15;;;;;;;5.74;100.00;100986.56;5096428;28;20119;-74
2022/03/04 06:55:40;;;;;;;63.80;37.42;;;;;;;5.80;100.00;100992.69;5083574;28;20055;-75
2022/03/04 06:58:26;;;;;;;62.92;37.80;;;;;;;5.87;100.00;101001.41;5096661;28;20174;-74
2022/03/04 07:01:15;;;;;;;74.88;40.65;;;;;;;5.98;100.00;101004.97;5083085;28;20020;-76
2022/03/04 07:04:01;;;;;;;59.47;35.35;;;;;;;6.21;100.00;101009.41;5096197;28;20028;-73
2022/03/04 07:06:46;;;;;;;56.92;31.92;;;;;;;6.24;100.00;101005.94;5082829;28;20067;-73
2022/03/04 07:09:35;;;;;;;59.15;34.05;;;;;;;6.27;100.00;101012.00;5095365;28;20389;-73
2022/03/04 07:12:21;;;;;;;46.17;28.38;;;;;;;6.21;100.00;101008.53;5095530;28;20067;-74
2022/03/04 07:15:07;;;;;;;52.33;28.77;;;;;;;6.27;100.00;101016.38;5097031;28;20032;-74
2022/03/04 07:17:53;;;;;;;56.42;33.10;;;;;;;6.63;100.00;101019.13;5095877;28;20024;-74
2022/03/04 07:20:40;;;;;;;76.30;40.97;;;;;;;7.03;100.00;101013.13;5097074;28;20028;-72
2022/03/04 07:23:26;;;;;;;68.30;40.42;;;;;;;7.47;100.00;101011.44;5094979;28;20035;-74
2022/03/04 07:26:12;;;;;;;64.35;39.92;;;;;;;7.80;100.00;101007.03;5096237;28;20031;-73
2022/03/04 07:28:57;;;;;;;52.00;32.05;;;;;;;7.74;100.00;101006.16;5081595;28;20402;-73
2022/03/04 07:31:44;;;;;;;37.13;24.17;;;;;;;8.22;100.00;101008.69;5096957;28;20020;-73
2022/03/04 07:34:29;;;;;;;38.88;23.77;;;;;;;8.39;93.45;101010.38;5094783;28;20086;-74
2022/03/04 07:37:15;;;;;;;36.17;22.35;;;;;;;8.04;88.10;101004.34;5096299;28;20028;-73
2022/03/04 07:40:03;;;;;;;34.40;22.35;;;;;;;8.41;87.28;101015.59;5080420;28;20024;-74
2022/03/04 07:42:49;;;;;;;39.63;22.92;;;;;;;8.03;86.70;101017.41;5095609;28;20028;-74
2022/03/04 07:45:35;;;;;;;43.90;24.73;;;;;;;8.45;83.75;101019.94;5095682;28;20031;-71
2022/03/04 07:48:21;;;;;;;45.42;25.35;;;;;;;8.28;81.99;101024.34;5096131;28;20027;-72
2022/03/04 07:51:07;;;;;;;41.53;24.98;;;;;;;8.27;86.63;101022.59;5095683;28;20451;-73
2022/03/04 07:53:52;;;;;;;45.28;26.58;;;;;;;8.06;84.37;101020.00;5095441;28;20036;-73
2022/03/04 07:56:38;;;;;;;44.05;24.73;;;;;;;9.17;79.17;101025.59;5095933;28;20035;-71
2022/03/04 07:59:24;;;;;;;46.47;27.33;;;;;;;8.97;83.37;101021.41;5094224;28;20363;-73
2022/03/04 08:02:09;;;;;;;46.17;29.92;;;;;;;9.28;80.09;101026.41;5095755;28;20066;-73
2022/03/04 08:04:55;;;;;;;41.05;26.83;;;;;;;8.48;86.35;101022.53;5080531;28;20032;-73
2022/03/04 08:07:41;;;;;;;44.47;26.45;;;;;;;9.03;81.89;101024.84;5095392;28;20031;-73
2022/03/04 08:10:27;;;;;;;43.88;25.20;;;;;;;9.14;76.46;101020.41;5095603;28;20056;-73
2022/03/04 08:13:13;;;;;;;37.08;23.65;;;;;;;8.96;75.95;101022.28;5094346;28;20439;-73
2022/03/04 08:15:58;;;;;;;33.13;20.92;;;;;;;8.99;71.54;101017.91;5080223;28;20046;-73
2022/03/04 08:18:44;;;;;;;35.20;22.17;;;;;;;9.19;69.56;101015.13;5095136;28;20043;-73
2022/03/04 08:21:30;;;;;;;40.83;24.42;;;;;;;9.37;69.31;101010.63;5095041;28;20443;-73
2022/03/04 08:24:16;;;;;;;35.53;22.50;;;;;;;9.11;68.93;101019.53;5094470;28;20368;-73
2022/03/04 08:27:01;;;;;;;36.08;21.85;;;;;;;9.40;68.95;101014.97;5095120;28;20027;-74
2022/03/04 08:29:48;;;;;;;36.05;22.02;;;;;;;10.07;63.37;101005.66;5094306;28;20059;-74
2022/03/04 08:32:34;;;;;;;34.85;21.63;;;;;;;9.24;62.61;101011.63;5094535;28;20028;-73
2022/03/04 08:35:20;;;;;;;35.95;21.75;;;;;;;10.43;61.98;101015.69;5094888;28;20031;-70
2022/03/04 08:38:06;;;;;;;34.17;21.45;;;;;;;10.37;60.41;101021.00;5095029;28;20043;-72
2022/03/04 08:40:52;;;;;;;40.53;22.10;;;;;;;10.31;63.00;101010.59;5093211;28;20444;-72
2022/03/04 08:43:38;;;;;;;33.67;21.15;;;;;;;9.71;61.39;101008.59;5095226;28;20020;-72
2022/03/04 08:46:24;;;;;;;33.58;19.70;;;;;;;9.53;58.86;101012.25;5093382;28;20024;-72
2022/03/04 08:49:10;;;;;;;34.47;20.83;;;;;;;9.85;60.09;101010.19;5095796;28;20111;-71
2022/03/04 08:51:56;;;;;;;41.70;22.15;;;;;;;9.90;60.19;101011.00;5080203;28;20036;-72
2022/03/04 08:54:42;;;;;;;35.17;21.05;;;;;;;9.93;58.56;101005.75;5094594;28;20024;-71
2022/03/04 08:57:28;;;;;;;33.88;20.60;;;;;;;10.84;57.43;101004.69;5095041;28;20428;-73
2022/03/04 09:00:15;;;;;;;32.40;19.70;;;;;;;10.44;55.25;101012.19;5079228;28;20032;-71
2022/03/04 09:03:01;;;;;;;32.22;20.63;;;;;;;10.78;55.52;101010.88;5094543;28;20129;-72
2022/03/04 09:05:47;;;;;;;36.00;20.58;;;;;;;11.09;52.29;101006.91;5079624;28;20474;-73
2022/03/04 09:08:33;;;;;;;34.03;21.13;;;;;;;10.63;55.01;101012.81;5080307;28;20035;-72
2022/03/04 09:11:21;;;;;;;34.50;20.48;;;;;;;11.35;53.39;101009.13;5094061;28;20146;-71
2022/03/04 09:14:07;;;;;;;37.78;20.90;;;;;;;11.52;53.10;101001.84;5094111;28;20036;-72
2022/03/04 09:16:53;;;;;;;35.88;20.58;;;;;;;11.04;52.68;101005.25;5094024;28;20519;-72
2022/03/04 09:19:39;;;;;;;37.22;21.67;;;;;;;10.98;53.66;101007.97;5094449;28;20097;-72
2022/03/04 09:22:25;;;;;;;34.67;21.05;;;;;;;11.20;53.63;100999.75;5094047;28;20028;-72
2022/03/04 09:25:11;;;;;;;34.83;21.02;;;;;;;9.94;55.15;101007.47;5079037;28;20085;-72
2022/03/04 09:27:57;;;;;;;37.88;21.45;;;;;;;10.40;54.92;101001.78;5093431;28;20024;-72
2022/03/04 09:30:43;;;;;;;32.65;20.60;;;;;;;10.35;54.72;100998.34;5079013;28;20028;-68
2022/03/04 09:33:29;;;;;;;41.67;22.88;;;;;;;10.68;54.44;100997.94;5092783;28;20059;-72
2022/03/04 09:36:15;;;;;;;37.75;22.80;;;;;;;11.10;53.14;100994.69;5094302;28;20518;-71
2022/03/04 09:39:00;;;;;;;35.88;21.92;;;;;;;11.48;52.05;100995.81;5078341;28;20036;-72
2022/03/04 09:41:46;;;;;;;33.03;20.60;;;;;;;11.45;53.66;100993.22;5096710;28;20027;-72
2022/03/04 09:44:32;;;;;;;35.80;22.17;;;;;;;10.98;52.99;100992.25;5097826;28;20024;-72
2022/03/04 09:47:22;;;;;;;32.63;20.48;;;;;;;10.64;54.12;100994.47;5097755;28;20035;-71
2022/03/04 09:50:09;;;;;;;40.63;22.60;;;;;;;10.69;55.62;100984.78;5098173;28;20024;-70
2022/03/04 09:52:56;;;;;;;35.90;20.70;;;;;;;10.44;54.92;100991.22;5096962;28;20036;-72
2022/03/04 09:55:42;;;;;;;33.75;21.23;;;;;;;10.23;56.21;100994.13;5096870;28;20093;-70
2022/03/04 09:58:28;;;;;;;35.08;21.63;;;;;;;10.62;56.49;100991.00;5097264;28;20036;-71
2022/03/04 10:01:16;;;;;;;36.17;20.70;;;;;;;11.16;55.81;100992.81;5098058;28;20028;-72
2022/03/04 10:04:05;;;;;;;35.53;21.45;;;;;;;10.93;55.71;100988.81;5097420;28;20345;-71
2022/03/04 10:06:50;;;;;;;34.80;21.60;;;;;;;10.79;53.90;100978.53;5098038;28;20036;-71
2022/03/04 10:09:57;;;;;;;35.17;21.85;;;;;;;10.83;55.68;100979.34;5097767;28;20016;-71
2022/03/04 10:12:49;;;;;;;41.40;24.10;;;;;;;11.43;54.14;100979.28;5097285;28;20105;-71
2022/03/04 10:15:34;;;;;;;35.65;22.98;;;;;;;11.39;52.28;100979.34;5096817;28;20040;-70
2022/03/04 10:18:28;;;;;;;34.65;21.85;;;;;;;10.95;53.72;100976.53;5097046;28;20024;-71
2022/03/04 10:21:14;;;;;;;33.72;21.75;;;;;;;10.33;54.04;100973.94;5098179;28;20028;-70
2022/03/04 10:24:09;;;;;;;38.35;21.70;;;;;;;10.81;54.88;100968.03;5097815;28;20027;-70
2022/03/04 10:27:09;;;;;;;34.85;22.15;;;;;;;11.12;55.07;100969.28;5098032;28;20043;-69
2022/03/04 10:29:55;;;;;;;31.80;20.02;;;;;;;11.11;52.57;100972.81;5097898;28;20032;-70
2022/03/04 10:32:41;;;;;;;33.03;20.95;;;;;;;10.65;54.36;100969.13;5097181;28;20032;-70
2022/03/04 10:35:27;;;;;;;31.02;20.85;;;;;;;11.32;53.63;100970.72;5083659;28;20353;-71
2022/03/04 10:38:22;;;;;;;35.78;21.15;;;;;;;11.29;54.40;100962.03;5097118;28;20451;-71
2022/03/04 10:41:25;;;;;;;36.65;21.85;;;;;;;10.93;55.37;100971.31;5096651;28;20024;-71
2022/03/04 10:44:27;;;;;;;34.05;21.77;;;;;;;11.88;53.56;100965.38;5096752;28;20028;-71
2022/03/04 10:47:13;;;;;;;34.53;21.35;;;;;;;11.25;53.94;100968.22;5096101;28;20016;-70
2022/03/04 10:49:58;;;;;;;31.67;20.75;;;;;;;11.63;50.50;100964.09;5098178;28;20047;-70
2022/03/04 10:52:50;;;;;;;43.72;21.90;;;;;;;11.56;51.67;100956.28;5094651;28;20367;-72
2022/03/04 10:55:45;;;;;;;34.40;21.80;;;;;;;11.41;52.79;100959.22;5096353;28;20032;-72
2022/03/04 10:58:36;;;;;;;34.50;20.30;;;;;;;11.27;52.71;100951.56;5095417;28;20032;-70
2022/03/04 11:01:22;;;;;;;30.52;20.15;;;;;;;11.82;52.11;100956.75;5096805;28;20051;-71
2022/03/04 11:04:09;;;;;;;31.77;19.98;;;;;;;11.64;50.06;100949.19;5095385;28;20020;-71
2022/03/04 11:06:57;;;;;;;31.05;19.77;;;;;;;11.85;49.37;100951.44;5096831;28;20036;-71
2022/03/04 11:09:43;;;;;;;32.95;20.13;;;;;;;12.06;49.49;100959.75;5095482;28;20028;-71
2022/03/04 11:12:28;;;;;;;30.15;19.73;;;;;;;12.11;49.34;100957.91;5096339;28;20044;-72
2022/03/04 11:15:14;;;;;;;29.23;18.83;;;;;;;11.93;48.55;100947.75;5096406;28;20564;-70
2022/03/04 11:18:06;;;;;;;29.80;19.98;;;;;;;11.38;49.11;100944.41;5096695;28;20066;-70
2022/03/04 11:20:55;;;;;;;34.22;21.80;;;;;;;11.07;51.27;100937.91;5096815;28;20028;-71
2022/03/04 11:23:46;;;;;;;30.48;20.35;;;;;;;11.43;51.01;100941.66;5095060;28;20057;-71
2022/03/04 11:26:32;;;;;;;26.95;18.88;;;;;;;12.12;50.47;100929.88;5096126;28;20119;-70
2022/03/04 11:29:34;;;;;;;31.02;20.52;;;;;;;12.23;48.86;100936.66;5081813;28;20076;-70
2022/03/04 11:32:29;;;;;;;28.90;19.48;;;;;;;12.04;49.61;100937.03;5094879;28;20115;-70
2022/03/04 11:35:35;;;;;;;28.80;18.63;;;;;;;13.02;47.23;100925.25;5096576;28;20036;-71
2022/03/04 11:38:46;;;;;;;27.70;18.48;;;;;;;13.18;46.57;100922.19;5096161;28;20030;-73
2022/03/04 11:42:04;;;;;;;29.67;20.00;;;;;;;12.13;48.46;100921.97;5095726;28;20024;-73
2022/03/04 11:44:55;;;;;;;38.97;20.30;;;;;;;12.27;49.46;100919.06;5081384;28;20115;-73
2022/03/04 11:47:44;;;;;;;29.23;19.48;;;;;;;12.71;48.46;100918.94;5096634;28;20059;-71
2022/03/04 11:50:53;;;;;;;29.35;19.63;;;;;;;12.27;47.96;100925.19;5096464;28;20474;-72
2022/03/04 11:53:39;;;;;;;30.25;19.25;;;;;;;12.32;49.26;100925.94;5080553;28;20101;-72
2022/03/04 11:56:25;;;;;;;28.95;18.15;;;;;;;12.79;46.00;100917.88;5080572;28;20046;-72
2022/03/04 11:59:18;;;;;;;28.10;17.70;;;;;;;13.04;45.10;100911.16;5095675;28;20432;-72
2022/03/04 12:02:04;;;;;;;24.85;17.45;;;;;;;13.20;44.38;100917.78;5080387;28;20028;-73
2022/03/04 12:05:12;;;;;;;25.65;18.17;;;;;;;13.45;44.33;100915.38;5095604;28;20099;-72
2022/03/04 12:07:58;;;;;;;25.85;18.42;;;;;;;13.79;44.06;100909.16;5096470;28;20090;-72
2022/03/04 12:10:47;;;;;;;24.65;17.27;;;;;;;14.18;42.94;100907.19;5079819;28;20084;-72
2022/03/04 12:13:39;;;;;;;25.58;17.58;;;;;;;12.56;42.66;100908.78;5079507;28;20051;-72
2022/03/04 12:16:46;;;;;;;25.95;16.58;;;;;;;12.80;44.49;100903.84;5067765;28;20035;-73
2022/03/04 12:19:35;;;;;;;23.73;17.10;;;;;;;13.22;43.22;100901.97;5094593;28;20019;-72
2022/03/04 12:22:25;;;;;;;26.55;17.85;;;;;;;14.15;42.48;100899.38;5094490;28;20024;-72
2022/03/04 12:25:11;;;;;;;28.48;18.50;;;;;;;13.89;44.02;100896.59;5095030;28;20440;-72
2022/03/04 12:27:56;;;;;;;26.63;17.73;;;;;;;13.39;42.16;100894.50;5080670;28;20116;-71
2022/03/04 12:30:42;;;;;;;30.77;18.55;;;;;;;11.88;43.17;100885.72;5080830;28;20019;-73
2022/03/04 12:33:30;;;;;;;25.00;16.77;;;;;;;12.25;42.54;100879.69;5078872;28;20035;-72
2022/03/04 12:36:17;;;;;;;28.08;17.58;;;;;;;12.60;43.53;100894.66;5094250;28;20028;-72
2022/03/04 12:39:03;;;;;;;26.27;17.75;;;;;;;12.93;42.94;100884.22;5094352;28;20039;-71